sensor_id;sensor_type;location;lat;lon;timestamp;pressure;altitude;pressure_sealevel;temperature;humidity
27864;BME280;15980;51.092;13.916;2023-08-20T00:07:15;98964.06;;;22.14;84.18
27864;BME280;15980;51.092;13.916;2023-08-20T00:17:16;98951.66;;;22.18;83.09
27864;BME280;15980;51.092;13.916;2023-08-20T00:27:16;98947.94;;;22.32;82.32
27864;BME280;15980;51.092;13.916;2023-08-20T00:37:17;98949.44;;;22.40;82.15
27864;BME280;15980;51.092;13.916;2023-08-20T00:47:18;98953.00;;;22.44;81.89
27864;BME280;15980;51.092;13.916;2023-08-20T00:57:18;98954.84;;;22.62;81.46
27864;BME280;15980;51.092;13.916;2023-08-20T01:17:38;98966.72;;;22.73;80.88
27864;BME280;15980;51.092;13.916;2023-08-20T01:38:03;98981.03;;;22.78;80.37
27864;BME280;15980;51.092;13.916;2023-08-20T01:48:04;98994.63;;;22.80;80.33
27864;BME280;15980;51.092;13.916;2023-08-20T01:58:04;99009.50;;;22.70;82.63
27864;BME280;15980;51.092;13.916;2023-08-20T02:08:05;99011.16;;;22.64;82.01
27864;BME280;15980;51.092;13.916;2023-08-20T02:18:05;99009.97;;;22.65;81.74
27864;BME280;15980;51.092;13.916;2023-08-20T02:28:05;99018.75;;;22.63;83.29
27864;BME280;15980;51.092;13.916;2023-08-20T02:38:06;99015.97;;;22.63;83.10
27864;BME280;15980;51.092;13.916;2023-08-20T02:48:06;99020.81;;;22.59;83.58
27864;BME280;15980;51.092;13.916;2023-08-20T02:58:07;99015.22;;;22.59;83.46
27864;BME280;15980;51.092;13.916;2023-08-20T03:08:07;99014.38;;;22.62;82.50
27864;BME280;15980;51.092;13.916;2023-08-20T03:18:07;99019.91;;;22.69;81.11
27864;BME280;15980;51.092;13.916;2023-08-20T03:28:07;99031.41;;;22.78;79.10
27864;BME280;15980;51.092;13.916;2023-08-20T03:38:08;99034.25;;;23.16;77.20
27864;BME280;15980;51.092;13.916;2023-08-20T03:48:08;99040.09;;;23.29;76.17
27864;BME280;15980;51.092;13.916;2023-08-20T03:58:08;99047.56;;;23.42;76.05
27864;BME280;15980;51.092;13.916;2023-08-20T04:08:08;99044.44;;;23.33;76.95
27864;BME280;15980;51.092;13.916;2023-08-20T04:18:09;99060.91;;;23.28;76.98
27864;BME280;15980;51.092;13.916;2023-08-20T04:28:09;99060.19;;;23.20;78.27
27864;BME280;15980;51.092;13.916;2023-08-20T04:38:09;99074.94;;;23.24;79.03
27864;BME280;15980;51.092;13.916;2023-08-20T04:48:10;99090.19;;;23.19;79.67
27864;BME280;15980;51.092;13.916;2023-08-20T04:58:10;99087.31;;;23.27;80.68
27864;BME280;15980;51.092;13.916;2023-08-20T05:08:10;99098.75;;;23.05;82.14
27864;BME280;15980;51.092;13.916;2023-08-20T05:18:11;99113.28;;;22.86;84.11
27864;BME280;15980;51.092;13.916;2023-08-20T05:28:11;99113.66;;;23.33;83.17
27864;BME280;15980;51.092;13.916;2023-08-20T05:38:11;99132.00;;;23.78;80.96
27864;BME280;15980;51.092;13.916;2023-08-20T05:48:11;99147.06;;;24.22;79.60
27864;BME280;15980;51.092;13.916;2023-08-20T05:58:12;99162.09;;;24.39;78.81
27864;BME280;15980;51.092;13.916;2023-08-20T06:08:12;99160.22;;;24.25;80.08
27864;BME280;15980;51.092;13.916;2023-08-20T06:18:12;99160.25;;;24.56;79.89
27864;BME280;15980;51.092;13.916;2023-08-20T06:28:12;99180.19;;;24.88;78.22
27864;BME280;15980;51.092;13.916;2023-08-20T06:38:13;99162.53;;;25.15;78.70
27864;BME280;15980;51.092;13.916;2023-08-20T06:48:13;99165.75;;;25.17;76.88
27864;BME280;15980;51.092;13.916;2023-08-20T06:58:13;99164.81;;;24.96;78.31
27864;BME280;15980;51.092;13.916;2023-08-20T07:08:13;99186.53;;;25.43;76.67
27864;BME280;15980;51.092;13.916;2023-08-20T07:18:14;99200.66;;;25.16;78.55
27864;BME280;15980;51.092;13.916;2023-08-20T07:28:14;99212.13;;;25.48;77.25
27864;BME280;15980;51.092;13.916;2023-08-20T07:38:15;99219.88;;;25.64;75.36
27864;BME280;15980;51.092;13.916;2023-08-20T07:48:15;99215.03;;;25.68;75.53
27864;BME280;15980;51.092;13.916;2023-08-20T07:58:15;99213.84;;;26.09;74.60
27864;BME280;15980;51.092;13.916;2023-08-20T08:08:17;99219.09;;;27.51;70.89
27864;BME280;15980;51.092;13.916;2023-08-20T08:18:20;99214.56;;;27.70;68.52
27864;BME280;15980;51.092;13.916;2023-08-20T08:28:21;99225.97;;;27.95;67.30
27864;BME280;15980;51.092;13.916;2023-08-20T08:38:21;99243.28;;;28.10;67.20
27864;BME280;15980;51.092;13.916;2023-08-20T08:48:21;99258.59;;;27.96;66.55
27864;BME280;15980;51.092;13.916;2023-08-20T08:58:22;99257.34;;;27.97;66.38
27864;BME280;15980;51.092;13.916;2023-08-20T09:08:26;99254.13;;;26.45;71.91
27864;BME280;15980;51.092;13.916;2023-08-20T09:18:26;99254.25;;;26.94;72.03
27864;BME280;15980;51.092;13.916;2023-08-20T09:28:29;99282.03;;;27.28;72.35
27864;BME280;15980;51.092;13.916;2023-08-20T09:38:29;99275.63;;;26.55;74.31
27864;BME280;15980;51.092;13.916;2023-08-20T09:48:33;99274.00;;;27.10;73.77
27864;BME280;15980;51.092;13.916;2023-08-20T09:58:35;99271.31;;;27.56;72.56
27864;BME280;15980;51.092;13.916;2023-08-20T10:08:37;99288.25;;;27.03;73.44
27864;BME280;15980;51.092;13.916;2023-08-20T10:18:39;99275.50;;;27.15;72.92
27864;BME280;15980;51.092;13.916;2023-08-20T10:28:39;99266.00;;;27.25;71.99
27864;BME280;15980;51.092;13.916;2023-08-20T10:38:40;99264.34;;;27.44;70.10
27864;BME280;15980;51.092;13.916;2023-08-20T10:48:41;99252.97;;;27.31;69.16
27864;BME280;15980;51.092;13.916;2023-08-20T10:58:47;99242.78;;;27.70;67.55
27864;BME280;15980;51.092;13.916;2023-08-20T11:08:47;99243.53;;;28.32;66.18
27864;BME280;15980;51.092;13.916;2023-08-20T11:18:47;99232.63;;;28.59;63.12
27864;BME280;15980;51.092;13.916;2023-08-20T11:28:48;99231.81;;;28.46;63.99
27864;BME280;15980;51.092;13.916;2023-08-20T11:38:52;99233.09;;;28.70;60.09
27864;BME280;15980;51.092;13.916;2023-08-20T11:49:05;99232.88;;;28.77;55.48
27864;BME280;15980;51.092;13.916;2023-08-20T11:59:10;99224.00;;;28.92;54.36
27864;BME280;15980;51.092;13.916;2023-08-20T12:09:23;99223.63;;;29.02;53.80
27864;BME280;15980;51.092;13.916;2023-08-20T12:19:24;99213.53;;;29.39;52.79
27864;BME280;15980;51.092;13.916;2023-08-20T12:29:25;99201.31;;;29.90;52.44
27864;BME280;15980;51.092;13.916;2023-08-20T12:39:25;99196.53;;;29.99;52.43
27864;BME280;15980;51.092;13.916;2023-08-20T12:49:25;99197.66;;;30.24;53.00
27864;BME280;15980;51.092;13.916;2023-08-20T12:59:25;99180.28;;;30.13;54.10
27864;BME280;15980;51.092;13.916;2023-08-20T13:09:26;99177.59;;;30.09;52.63
27864;BME280;15980;51.092;13.916;2023-08-20T13:19:26;99150.41;;;30.12;54.62
27864;BME280;15980;51.092;13.916;2023-08-20T13:29:26;99153.91;;;29.94;54.45
27864;BME280;15980;51.092;13.916;2023-08-20T13:39:27;99148.69;;;30.14;53.00
27864;BME280;15980;51.092;13.916;2023-08-20T13:49:27;99158.31;;;30.17;52.78
27864;BME280;15980;51.092;13.916;2023-08-20T13:59:27;99136.81;;;30.28;52.52
27864;BME280;15980;51.092;13.916;2023-08-20T14:09:28;99130.09;;;30.35;52.64
27864;BME280;15980;51.092;13.916;2023-08-20T14:19:28;99120.63;;;30.29;53.11
27864;BME280;15980;51.092;13.916;2023-08-20T14:29:29;99123.66;;;30.66;51.60
27864;BME280;15980;51.092;13.916;2023-08-20T14:39:29;99111.00;;;30.98;51.46
27864;BME280;15980;51.092;13.916;2023-08-20T14:49:29;99099.13;;;30.72;51.46
27864;BME280;15980;51.092;13.916;2023-08-20T14:59:29;99102.91;;;30.69;51.67
27864;BME280;15980;51.092;13.916;2023-08-20T15:09:30;99103.78;;;30.97;51.10
27864;BME280;15980;51.092;13.916;2023-08-20T15:19:30;99094.47;;;30.96;51.76
27864;BME280;15980;51.092;13.916;2023-08-20T15:29:30;99106.53;;;30.78;52.95
27864;BME280;15980;51.092;13.916;2023-08-20T15:39:32;99111.88;;;31.44;50.30
27864;BME280;15980;51.092;13.916;2023-08-20T15:49:33;99117.84;;;31.18;50.39
27864;BME280;15980;51.092;13.916;2023-08-20T15:59:34;99112.41;;;30.84;51.78
27864;BME280;15980;51.092;13.916;2023-08-20T16:09:35;99114.59;;;30.80;53.29
27864;BME280;15980;51.092;13.916;2023-08-20T16:19:36;99102.50;;;30.88;55.30
27864;BME280;15980;51.092;13.916;2023-08-20T16:29:36;99102.31;;;30.12;58.01
27864;BME280;15980;51.092;13.916;2023-08-20T16:39:36;99111.50;;;29.81;59.45
27864;BME280;15980;51.092;13.916;2023-08-20T16:49:40;99124.72;;;29.84;56.02
27864;BME280;15980;51.092;13.916;2023-08-20T16:59:40;99126.44;;;29.60;53.75
27864;BME280;15980;51.092;13.916;2023-08-20T17:09:40;99128.28;;;29.54;54.58
27864;BME280;15980;51.092;13.916;2023-08-20T17:19:41;99130.47;;;29.24;54.94
27864;BME280;15980;51.092;13.916;2023-08-20T17:29:41;99135.50;;;28.82;56.63
27864;BME280;15980;51.092;13.916;2023-08-20T17:39:41;99151.88;;;28.49;57.00
27864;BME280;15980;51.092;13.916;2023-08-20T17:49:41;99112.94;;;28.02;57.32
27864;BME280;15980;51.092;13.916;2023-08-20T17:59:42;99097.13;;;27.92;57.68
27864;BME280;15980;51.092;13.916;2023-08-20T18:09:42;99095.25;;;27.44;61.12
27864;BME280;15980;51.092;13.916;2023-08-20T18:19:42;99120.22;;;26.80;64.13
27864;BME280;15980;51.092;13.916;2023-08-20T18:29:44;99125.34;;;26.33;66.73
27864;BME280;15980;51.092;13.916;2023-08-20T18:39:44;99142.22;;;26.13;68.13
27864;BME280;15980;51.092;13.916;2023-08-20T18:49:44;99153.41;;;25.77;69.00
27864;BME280;15980;51.092;13.916;2023-08-20T18:59:44;99162.47;;;25.65;70.50
27864;BME280;15980;51.092;13.916;2023-08-20T19:09:45;99185.75;;;25.42;72.38
27864;BME280;15980;51.092;13.916;2023-08-20T19:19:45;99199.31;;;25.24;74.28
27864;BME280;15980;51.092;13.916;2023-08-20T19:29:45;99194.50;;;25.24;74.30
27864;BME280;15980;51.092;13.916;2023-08-20T19:39:46;99191.75;;;25.21;75.28
27864;BME280;15980;51.092;13.916;2023-08-20T19:49:46;99206.38;;;25.09;76.22
27864;BME280;15980;51.092;13.916;2023-08-20T19:59:46;99195.41;;;24.91;77.40
27864;BME280;15980;51.092;13.916;2023-08-20T20:09:46;99202.53;;;24.95;78.16
27864;BME280;15980;51.092;13.916;2023-08-20T20:19:47;99207.78;;;24.93;78.55
27864;BME280;15980;51.092;13.916;2023-08-20T20:29:47;99257.69;;;24.52;84.38
27864;BME280;15980;51.092;13.916;2023-08-20T20:39:47;99238.09;;;24.14;90.68
27864;BME280;15980;51.092;13.916;2023-08-20T20:49:48;99230.44;;;23.80;96.45
27864;BME280;15980;51.092;13.916;2023-08-20T20:59:48;99234.91;;;23.74;99.42
27864;BME280;15980;51.092;13.916;2023-08-20T21:09:50;99235.34;;;23.69;100.00
27864;BME280;15980;51.092;13.916;2023-08-20T21:19:50;99229.13;;;23.51;100.00
27864;BME280;15980;51.092;13.916;2023-08-20T21:29:51;99233.97;;;23.47;100.00
27864;BME280;15980;51.092;13.916;2023-08-20T21:39:51;99245.91;;;23.51;100.00
27864;BME280;15980;51.092;13.916;2023-08-20T21:49:53;99257.63;;;23.35;100.00
27864;BME280;15980;51.092;13.916;2023-08-20T21:59:54;99287.38;;;23.18;100.00
27864;BME280;15980;51.092;13.916;2023-08-20T22:09:55;99280.56;;;23.19;100.00
27864;BME280;15980;51.092;13.916;2023-08-20T22:19:55;99285.88;;;23.03;100.00
27864;BME280;15980;51.092;13.916;2023-08-20T22:29:55;99247.16;;;22.91;100.00
27864;BME280;15980;51.092;13.916;2023-08-20T22:39:56;99255.34;;;22.57;100.00
27864;BME280;15980;51.092;13.916;2023-08-20T22:49:56;99264.53;;;22.50;100.00
27864;BME280;15980;51.092;13.916;2023-08-20T22:59:56;99266.97;;;22.45;100.00
27864;BME280;15980;51.092;13.916;2023-08-20T23:09:57;99250.97;;;22.45;100.00
27864;BME280;15980;51.092;13.916;2023-08-20T23:19:58;99245.81;;;22.40;100.00
27864;BME280;15980;51.092;13.916;2023-08-20T23:29:58;99244.72;;;22.16;100.00
27864;BME280;15980;51.092;13.916;2023-08-20T23:39:58;99240.28;;;22.26;100.00
27864;BME280;15980;51.092;13.916;2023-08-20T23:49:58;99237.09;;;22.24;100.00
27864;BME280;15980;51.092;13.916;2023-08-20T23:59:59;99234.75;;;22.05;100.00
